Main page
METAR-TAF:

METAR-TAF

Airports :

Jinnah International Airport

Karachi, Pakistan

latitude: 24-54N, longitude: 067-08E, elevation: 21 m

Current weather observation

The report was made 34 minutes ago, at 05:25 UTC
Wind 10 kt from the West
Temperature 30°C
Humidity 66%
Pressure 1005 hPa
Visibility: 6000 m
Broken clouds at a height of 2000 ft

METAR: OPKC 250525Z 26010KT 6000 BKN020 30/23 Q1005 NOSIG

Time: 10:59 (05:59 UTC)

Forecast

The report was made 1 hour and 59 minutes ago, at 04:00 UTC
Forecast valid from 25 at 06 UTC to 26 at 12 UTC
Wind 8 kt from the West/Southwest with gusts up to 18 kt
Visibility: 6000 m
Broken clouds at a height of 2000 ft

TAF: OPKC 250400Z 2506/2612 24008G18KT 6000 BKN020

Weather observations and forecasts of more than 4000 airports (METAR and TAF reports).

The available stations are represented by yellow and red dots on the map.

Hover mouse over dot to see the name of the station.

Then click to see weather observations and forecasts.

To change the map : click on the green buttons with a black cross to zoom in, on the green button with a dash to zoom out, or on the green arrows for adjacent maps.


METAR-TAF: